Norwegian Jade — C6WK7 — position and weather

sailwx.info

Track history (hours):
 
Tides and Currents Weather Stations Pressure Air Temp Water Temp Dewpoint Dewpoint Depression Visibility Wind Speed Wind Dir Waves Ship Positions

Norwegian Jade

Last reported at 2017-Apr-27 00:00 UTC. Time now 2017-Apr-27 01:31 UTC.
Position N 18°24' W 087°30'.

Length 294 m; draft 8.5 m.

Type: Passenger vessel. MMSI: 308416000.

Wind from 160 at 27 knots

Barometer 1007.0 mb
Air temperature 26.9 ° C
Visibility: greater than 10.8 NM
Water temperature 28.0 ° C

Date/timePositionNaut miles runAvg speedWind from/ knotsBaromVisibWave heightAir tempDewpointWater temp
2017-Apr-27 00:00N 18°24' W 087°30'117 4.9 160 / 271007.010.8 26.9 28.0
2017-Apr-26 00:00N 20°18' W 087°00'4117.0 130 / 261010.010.8 26.3 28.0
2017-Apr-25 23:58N 20°19' W 087°04'4 9.0
2017-Apr-25 23:30N 20°23' W 087°03'4 8.8
2017-Apr-25 23:00N 20°27' W 087°02'4 7.1
2017-Apr-25 22:31N 20°30' W 086°59'2 4.5
2017-Apr-25 22:01N 20°31' W 086°57'0 0.4
2017-Apr-25 21:28N 20°31' W 086°57'0 0.0
2017-Apr-25 20:58N 20°31' W 086°57'0 0.0
2017-Apr-25 20:28N 20°31' W 086°57'0 0.0
2017-Apr-25 19:58N 20°31' W 086°57'0 0.0
2017-Apr-25 19:28N 20°31' W 086°57'0 0.0
2017-Apr-25 18:58N 20°31' W 086°57'0 0.0
2017-Apr-25 18:28N 20°31' W 086°57'0 0.0
2017-Apr-25 17:58N 20°31' W 086°57'0 0.0
2017-Apr-25 17:28N 20°31' W 086°57'0 0.0
2017-Apr-25 16:58N 20°31' W 086°57'0 0.0
2017-Apr-25 16:28N 20°31' W 086°57'0 0.0
2017-Apr-25 15:58N 20°31' W 086°57'0 0.0
2017-Apr-25 15:28N 20°31' W 086°57'0 0.0
2017-Apr-25 14:58N 20°31' W 086°57'0 0.0
2017-Apr-25 14:28N 20°31' W 086°57'0 0.0
2017-Apr-25 13:25N 20°31' W 086°57'0 0.0
2017-Apr-25 12:58N 20°31' W 086°57'0 0.0
2017-Apr-25 12:31N 20°31' W 086°57'2 4.0
2017-Apr-25 12:01N 20°33' W 086°57'510.6
2017-Apr-25 11:31N 20°37' W 086°54'28912.3
2017-Apr-24 12:00N 24°54' W 084°30'8714.5 310 / 271011.010.8 24.0 27.0
2017-Apr-24 06:00N 26°12' W 083°48'10113.4 300 / 161012.010.8 23.218.126.0
2017-Apr-23 22:29N 27°37' W 082°47'816.6
2017-Apr-23 22:00N 27°38' W 082°38'915.8
2017-Apr-23 21:26N 27°45' W 082°31'512.4
2017-Apr-23 21:00N 27°49' W 082°27'612.1
2017-Apr-23 20:30N 27°55' W 082°27'2 3.9
2017-Apr-23 20:00N 27°57' W 082°27'0 0.1
2017-Apr-23 19:30N 27°57' W 082°27'0 0.0
2017-Apr-23 19:00N 27°57' W 082°27'0 0.0
2017-Apr-23 18:30N 27°57' W 082°27'0 0.0
2017-Apr-23 18:00N 27°57' W 082°27'0 0.0
2017-Apr-23 17:30N 27°57' W 082°27'0 0.0
2017-Apr-23 17:00N 27°57' W 082°27'0 0.0
2017-Apr-23 16:30N 27°57' W 082°27'0 0.0
2017-Apr-23 16:00N 27°57' W 082°27'0 0.0
2017-Apr-23 15:30N 27°57' W 082°27'0 0.0
2017-Apr-23 15:00N 27°57' W 082°27'0 0.0
2017-Apr-23 13:57N 27°57' W 082°27'0 0.0
2017-Apr-23 13:30N 27°57' W 082°27'0 0.0
2017-Apr-23 12:57N 27°57' W 082°27'0 0.0
2017-Apr-23 12:30N 27°57' W 082°27'0 0.0
2017-Apr-23 11:54N 27°57' W 082°27'0 0.0
2017-Apr-23 11:30N 27°57' W 082°27'0 0.0
2017-Apr-23 11:00N 27°57' W 082°27'0 0.5
2017-Apr-23 10:30N 27°56' W 082°27'2 3.3
2017-Apr-23 10:00N 27°55' W 082°27'611.4
2017-Apr-23 09:30N 27°49' W 082°27'612.6
2017-Apr-23 09:00N 27°45' W 082°32'714.5
2017-Apr-23 08:30N 27°39' W 082°37'914.7
2017-Apr-23 07:53N 27°37' W 082°47'2111.2
2017-Apr-23 06:00N 27°24' W 083°06'12220.3 090 / 81014.010.8 27.215.526.0
2017-Apr-23 00:00N 25°30' W 083°54'41022.8 110 / 251013.610.8 23.5 27.0
2017-Apr-22 06:00N 19°06' W 086°30'   120 / 91011.0 5.4 26.019.929.0
2017-Apr-19 00:48N 20°23' W 087°03'310.6
2017-Apr-19 00:30N 20°26' W 087°02'510.2
2017-Apr-19 00:01N 20°30' W 086°59'1 2.5
2017-Apr-18 23:29N 20°31' W 086°57'0 0.0
2017-Apr-18 22:56N 20°31' W 086°57'0 0.0
2017-Apr-18 22:20N 20°31' W 086°57'0 0.0
2017-Apr-18 22:00N 20°31' W 086°57'0 0.0
2017-Apr-18 21:30N 20°31' W 086°57'0 0.0
2017-Apr-18 21:00N 20°31' W 086°57'0 0.0
2017-Apr-18 20:26N 20°31' W 086°57'0 0.0
2017-Apr-18 19:51N 20°31' W 086°57'0 0.0
2017-Apr-18 19:30N 20°31' W 086°57'0 0.0
2017-Apr-18 19:00N 20°31' W 086°57'0 0.0
2017-Apr-18 18:29N 20°31' W 086°57'0 0.0
2017-Apr-18 17:59N 20°31' W 086°57'0 0.0
2017-Apr-18 17:27N 20°31' W 086°57'0 0.0
2017-Apr-18 17:00N 20°31' W 086°57'0 0.0
2017-Apr-18 16:30N 20°31' W 086°57'0 0.0
2017-Apr-18 16:00N 20°31' W 086°57'0 0.0
2017-Apr-18 15:29N 20°31' W 086°57'0 0.0
2017-Apr-18 14:59N 20°31' W 086°57'0 0.0
2017-Apr-18 14:29N 20°31' W 086°57'0 0.0
2017-Apr-18 13:30N 20°31' W 086°57'0 0.0
2017-Apr-18 12:56N 20°31' W 086°57'0 0.7
2017-Apr-18 12:31N 20°31' W 086°57'4 8.6
2017-Apr-18 12:01N 20°35' W 086°56'15212.7
2017-Apr-18 00:00N 22°48' W 085°36'16113.4 080 / 141017.210.8 25.5 27.0
2017-Apr-17 12:00N 25°12' W 084°18'7913.2 080 / 211020.610.8 23.0 26.0
2017-Apr-17 06:00N 26°24' W 083°42'   030 / 131022.0 5.4 22.616.826.0
Track history (hours):
 
Tides and Currents Weather Stations Pressure Air Temp Water Temp Dewpoint Dewpoint Depression Visibility Wind Speed Wind Dir Waves Ship Positions

Norwegian Jade

Last reported at 2017-Apr-27 00:00 UTC. Time now 2017-Apr-27 01:31 UTC.
Position N 18°24' W 087°30'.

Length 294 m; draft 8.5 m.

Type: Passenger vessel. MMSI: 308416000.

Wind from 160 at 27 knots

Barometer 1007.0 mb
Air temperature 26.9 ° C
Visibility: greater than 10.8 NM
Water temperature 28.0 ° C

Date/timePositionNaut miles runAvg speedWind from/ knotsBaromVisibWave heightAir tempDewpointWater temp
2017-Apr-27 00:00N 18°24' W 087°30'117 4.9 160 / 271007.010.8 26.9 28.0
2017-Apr-26 00:00N 20°18' W 087°00'4117.0 130 / 261010.010.8 26.3 28.0
2017-Apr-25 23:58N 20°19' W 087°04'4 9.0
2017-Apr-25 23:30N 20°23' W 087°03'4 8.8
2017-Apr-25 23:00N 20°27' W 087°02'4 7.1
2017-Apr-25 22:31N 20°30' W 086°59'2 4.5
2017-Apr-25 22:01N 20°31' W 086°57'0 0.4
2017-Apr-25 21:28N 20°31' W 086°57'0 0.0
2017-Apr-25 20:58N 20°31' W 086°57'0 0.0
2017-Apr-25 20:28N 20°31' W 086°57'0 0.0
2017-Apr-25 19:58N 20°31' W 086°57'0 0.0
2017-Apr-25 19:28N 20°31' W 086°57'0 0.0
2017-Apr-25 18:58N 20°31' W 086°57'0 0.0
2017-Apr-25 18:28N 20°31' W 086°57'0 0.0
2017-Apr-25 17:58N 20°31' W 086°57'0 0.0
2017-Apr-25 17:28N 20°31' W 086°57'0 0.0
2017-Apr-25 16:58N 20°31' W 086°57'0 0.0
2017-Apr-25 16:28N 20°31' W 086°57'0 0.0
2017-Apr-25 15:58N 20°31' W 086°57'0 0.0
2017-Apr-25 15:28N 20°31' W 086°57'0 0.0
2017-Apr-25 14:58N 20°31' W 086°57'0 0.0
2017-Apr-25 14:28N 20°31' W 086°57'0 0.0
2017-Apr-25 13:25N 20°31' W 086°57'0 0.0
2017-Apr-25 12:58N 20°31' W 086°57'0 0.0
2017-Apr-25 12:31N 20°31' W 086°57'2 4.0
2017-Apr-25 12:01N 20°33' W 086°57'510.6
2017-Apr-25 11:31N 20°37' W 086°54'28912.3
2017-Apr-24 12:00N 24°54' W 084°30'8714.5 310 / 271011.010.8 24.0 27.0
2017-Apr-24 06:00N 26°12' W 083°48'10113.4 300 / 161012.010.8 23.218.126.0
2017-Apr-23 22:29N 27°37' W 082°47'816.6
2017-Apr-23 22:00N 27°38' W 082°38'915.8
2017-Apr-23 21:26N 27°45' W 082°31'512.4
2017-Apr-23 21:00N 27°49' W 082°27'612.1
2017-Apr-23 20:30N 27°55' W 082°27'2 3.9
2017-Apr-23 20:00N 27°57' W 082°27'0 0.1
2017-Apr-23 19:30N 27°57' W 082°27'0 0.0
2017-Apr-23 19:00N 27°57' W 082°27'0 0.0
2017-Apr-23 18:30N 27°57' W 082°27'0 0.0
2017-Apr-23 18:00N 27°57' W 082°27'0 0.0
2017-Apr-23 17:30N 27°57' W 082°27'0 0.0
2017-Apr-23 17:00N 27°57' W 082°27'0 0.0
2017-Apr-23 16:30N 27°57' W 082°27'0 0.0
2017-Apr-23 16:00N 27°57' W 082°27'0 0.0
2017-Apr-23 15:30N 27°57' W 082°27'0 0.0
2017-Apr-23 15:00N 27°57' W 082°27'0 0.0
2017-Apr-23 13:57N 27°57' W 082°27'0 0.0
2017-Apr-23 13:30N 27°57' W 082°27'0 0.0
2017-Apr-23 12:57N 27°57' W 082°27'0 0.0
2017-Apr-23 12:30N 27°57' W 082°27'0 0.0
2017-Apr-23 11:54N 27°57' W 082°27'0 0.0
2017-Apr-23 11:30N 27°57' W 082°27'0 0.0
2017-Apr-23 11:00N 27°57' W 082°27'0 0.5
2017-Apr-23 10:30N 27°56' W 082°27'2 3.3
2017-Apr-23 10:00N 27°55' W 082°27'611.4
2017-Apr-23 09:30N 27°49' W 082°27'612.6
2017-Apr-23 09:00N 27°45' W 082°32'714.5
2017-Apr-23 08:30N 27°39' W 082°37'914.7
2017-Apr-23 07:53N 27°37' W 082°47'2111.2
2017-Apr-23 06:00N 27°24' W 083°06'12220.3 090 / 81014.010.8 27.215.526.0
2017-Apr-23 00:00N 25°30' W 083°54'41022.8 110 / 251013.610.8 23.5 27.0
2017-Apr-22 06:00N 19°06' W 086°30'   120 / 91011.0 5.4 26.019.929.0
2017-Apr-19 00:48N 20°23' W 087°03'310.6
2017-Apr-19 00:30N 20°26' W 087°02'510.2
2017-Apr-19 00:01N 20°30' W 086°59'1 2.5
2017-Apr-18 23:29N 20°31' W 086°57'0 0.0
2017-Apr-18 22:56N 20°31' W 086°57'0 0.0
2017-Apr-18 22:20N 20°31' W 086°57'0 0.0
2017-Apr-18 22:00N 20°31' W 086°57'0 0.0
2017-Apr-18 21:30N 20°31' W 086°57'0 0.0
2017-Apr-18 21:00N 20°31' W 086°57'0 0.0
2017-Apr-18 20:26N 20°31' W 086°57'0 0.0
2017-Apr-18 19:51N 20°31' W 086°57'0 0.0
2017-Apr-18 19:30N 20°31' W 086°57'0 0.0
2017-Apr-18 19:00N 20°31' W 086°57'0 0.0
2017-Apr-18 18:29N 20°31' W 086°57'0 0.0
2017-Apr-18 17:59N 20°31' W 086°57'0 0.0
2017-Apr-18 17:27N 20°31' W 086°57'0 0.0
2017-Apr-18 17:00N 20°31' W 086°57'0 0.0
2017-Apr-18 16:30N 20°31' W 086°57'0 0.0
2017-Apr-18 16:00N 20°31' W 086°57'0 0.0
2017-Apr-18 15:29N 20°31' W 086°57'0 0.0
2017-Apr-18 14:59N 20°31' W 086°57'0 0.0
2017-Apr-18 14:29N 20°31' W 086°57'0 0.0
2017-Apr-18 13:30N 20°31' W 086°57'0 0.0
2017-Apr-18 12:56N 20°31' W 086°57'0 0.7
2017-Apr-18 12:31N 20°31' W 086°57'4 8.6
2017-Apr-18 12:01N 20°35' W 086°56'15212.7
2017-Apr-18 00:00N 22°48' W 085°36'16113.4 080 / 141017.210.8 25.5 27.0
2017-Apr-17 12:00N 25°12' W 084°18'7913.2 080 / 211020.610.8 23.0 26.0
2017-Apr-17 06:00N 26°24' W 083°42'   030 / 131022.0 5.4 22.616.826.0

Dump ship's entire track history